Time;durP1;ratioP1;P1;durP2;ratioP2;P2;SDS_P1;SDS_P2;PMS_P1;PMS_P2;Temp;Humidity;BMP_temperature;BMP_pressure;BME280_temperature;BME280_humidity;BME280_pressure;Samples;Min_cycle;Max_cycle;Signal;HPM_P1;HPM_P2
2021/09/14 00:00:45;;;;;;;17.27;13.65;;;;;;;;;;2079814;28;20196;-64
2021/09/14 00:01:45;;;;;;;17.17;12.48;;;;;;;;;;2080075;28;20276;-61
2021/09/14 00:02:46;;;;;;;18.30;12.68;;;;;;;;;;2080630;28;20263;-59
2021/09/14 00:03:46;;;;;;;19.85;14.65;;;;;;;;;;2079935;28;20180;-57
2021/09/14 00:04:46;;;;;;;16.60;12.32;;;;;;;;;;2086405;28;20563;-58
2021/09/14 00:05:46;;;;;;;14.32;12.65;;;;;;;;;;2080041;28;20258;-62
2021/09/14 00:06:47;;;;;;;16.20;13.23;;;;;;;;;;2076966;28;20192;-59
2021/09/14 00:07:47;;;;;;;17.40;14.57;;;;;;;;;;2076797;28;20172;-57
2021/09/14 00:08:48;;;;;;;15.98;13.25;;;;;;;;;;2081592;28;20223;-57
2021/09/14 00:09:48;;;;;;;15.88;13.25;;;;;;;;;;2080277;28;20249;-59
2021/09/14 00:10:48;;;;;;;16.65;12.90;;;;;;;;;;2082113;28;20723;-59
2021/09/14 00:11:48;;;;;;;15.38;12.23;;;;;;;;;;2081901;28;20203;-56
2021/09/14 00:12:48;;;;;;;17.73;13.50;;;;;;;;;;2082259;28;20187;-58
2021/09/14 00:13:49;;;;;;;19.48;13.55;;;;;;;;;;2081385;28;20648;-57
2021/09/14 00:14:49;;;;;;;18.23;13.15;;;;;;;;;;2082097;28;20791;-59
2021/09/14 00:15:49;;;;;;;18.05;13.38;;;;;;;;;;2081766;28;20353;-60
2021/09/14 00:16:50;;;;;;;17.15;14.45;;;;;;;;;;2087190;28;20199;-58
2021/09/14 00:17:50;;;;;;;17.67;13.55;;;;;;;;;;2078605;28;20560;-59
2021/09/14 00:18:51;;;;;;;18.52;13.68;;;;;;;;;;2081090;28;20176;-56
2021/09/14 00:19:51;;;;;;;19.65;14.07;;;;;;;;;;2083082;28;20279;-58
2021/09/14 00:20:51;;;;;;;20.00;13.85;;;;;;;;;;2080249;28;20204;-56
2021/09/14 00:21:51;;;;;;;17.92;14.68;;;;;;;;;;2080859;28;20184;-60
2021/09/14 00:22:52;;;;;;;19.75;13.95;;;;;;;;;;2082748;28;20187;-61
2021/09/14 00:23:52;;;;;;;17.23;13.52;;;;;;;;;;2080984;28;20180;-62
2021/09/14 00:24:52;;;;;;;20.50;15.20;;;;;;;;;;2082307;28;20176;-58
2021/09/14 00:25:52;;;;;;;24.27;16.08;;;;;;;;;;2083244;28;20275;-57
2021/09/14 00:26:53;;;;;;;22.05;15.30;;;;;;;;;;2082748;28;20230;-58
2021/09/14 00:27:53;;;;;;;20.73;14.88;;;;;;;;;;2082277;28;20458;-56
2021/09/14 00:28:53;;;;;;;19.38;14.80;;;;;;;;;;2081479;28;20290;-62
2021/09/14 00:29:53;;;;;;;21.73;15.32;;;;;;;;;;2086262;28;20191;-55
2021/09/14 00:30:54;;;;;;;20.92;13.85;;;;;;;;;;2082868;28;20176;-61
2021/09/14 00:31:54;;;;;;;17.38;14.32;;;;;;;;;;2077517;28;20633;-64
2021/09/14 00:32:54;;;;;;;17.02;13.68;;;;;;;;;;2082252;28;20789;-62
2021/09/14 00:33:55;;;;;;;19.52;14.30;;;;;;;;;;2082155;28;20176;-60
2021/09/14 00:34:55;;;;;;;19.90;14.52;;;;;;;;;;2081629;28;20262;-61
2021/09/14 00:35:56;;;;;;;18.27;14.23;;;;;;;;;;2080913;28;20172;-60
2021/09/14 00:36:56;;;;;;;17.33;13.45;;;;;;;;;;2077599;28;20184;-60
2021/09/14 00:37:56;;;;;;;17.00;13.27;;;;;;;;;;2080894;28;20171;-58
2021/09/14 00:38:56;;;;;;;23.13;14.57;;;;;;;;;;2079938;28;20175;-57
2021/09/14 00:39:57;;;;;;;21.10;15.57;;;;;;;;;;2081755;28;20566;-61
2021/09/14 00:40:57;;;;;;;19.30;14.63;;;;;;;;;;2082300;28;20172;-62
2021/09/14 00:41:57;;;;;;;19.13;13.55;;;;;;;;;;2081835;28;20652;-61
2021/09/14 00:42:57;;;;;;;17.10;14.02;;;;;;;;;;2087581;28;20205;-62
2021/09/14 00:43:59;;;;;;;19.38;13.68;;;;;;;;;;2088259;28;20206;-60
2021/09/14 00:44:59;;;;;;;18.23;13.52;;;;;;;;;;2082052;28;20687;-62
2021/09/14 00:45:59;;;;;;;18.80;14.05;;;;;;;;;;2082163;28;20186;-59
2021/09/14 00:47:00;;;;;;;22.80;13.40;;;;;;;;;;2082071;28;20250;-60
2021/09/14 00:48:00;;;;;;;20.85;14.35;;;;;;;;;;2081603;28;20168;-61
2021/09/14 00:49:01;;;;;;;20.05;13.48;;;;;;;;;;2082062;28;20781;-58
2021/09/14 00:50:03;;;;;;;17.85;13.20;;;;;;;;;;2090288;28;20176;-60
2021/09/14 00:51:04;;;;;;;18.50;13.65;;;;;;;;;;2089309;28;20168;-61
2021/09/14 00:52:04;;;;;;;18.73;13.90;;;;;;;;;;2090655;28;20179;-62
2021/09/14 00:53:04;;;;;;;17.92;13.20;;;;;;;;;;2090892;28;20640;-60
2021/09/14 00:54:05;;;;;;;16.08;13.38;;;;;;;;;;2090330;28;20534;-62
2021/09/14 00:55:05;;;;;;;14.02;12.48;;;;;;;;;;2090708;28;20659;-60
2021/09/14 00:56:07;;;;;;;18.42;12.75;;;;;;;;;;2090885;28;20218;-59
2021/09/14 00:57:07;;;;;;;19.88;14.52;;;;;;;;;;2091169;28;20581;-60
2021/09/14 00:58:07;;;;;;;19.00;15.30;;;;;;;;;;2090835;28;20170;-60
2021/09/14 00:59:08;;;;;;;20.08;14.23;;;;;;;;;;2089057;28;20203;-61
2021/09/14 01:00:09;;;;;;;17.70;13.85;;;;;;;;;;2082105;28;20234;-60
2021/09/14 01:01:09;;;;;;;19.02;13.85;;;;;;;;;;2079723;28;20180;-58
2021/09/14 01:02:10;;;;;;;19.77;14.85;;;;;;;;;;2086783;28;20180;-63
2021/09/14 01:03:10;;;;;;;19.45;15.52;;;;;;;;;;2079336;28;20694;-62
2021/09/14 01:04:10;;;;;;;19.27;15.27;;;;;;;;;;2079688;28;20200;-64
2021/09/14 01:05:11;;;;;;;20.55;15.73;;;;;;;;;;2087187;28;20172;-63
2021/09/14 01:06:12;;;;;;;22.05;14.10;;;;;;;;;;2067174;28;20232;-61
2021/09/14 01:07:12;;;;;;;20.13;14.25;;;;;;;;;;2077146;28;20704;-63
2021/09/14 01:08:13;;;;;;;19.73;15.63;;;;;;;;;;2092614;28;20187;-62
2021/09/14 01:09:14;;;;;;;25.55;14.05;;;;;;;;;;2080913;28;20176;-61
2021/09/14 01:10:14;;;;;;;21.90;14.00;;;;;;;;;;2066702;28;20193;-60
2021/09/14 01:11:15;;;;;;;21.15;13.68;;;;;;;;;;2066650;28;20174;-59
2021/09/14 01:12:18;;;;;;;19.65;14.52;;;;;;;;;;2067025;28;20703;-60
2021/09/14 01:13:20;;;;;;;19.98;15.05;;;;;;;;;;2082991;28;20160;-60
2021/09/14 01:14:20;;;;;;;19.38;13.57;;;;;;;;;;2089916;28;20199;-61
2021/09/14 01:15:21;;;;;;;21.42;14.60;;;;;;;;;;2091539;28;20171;-59
2021/09/14 01:16:21;;;;;;;18.45;14.60;;;;;;;;;;2090410;28;20210;-61
2021/09/14 01:17:21;;;;;;;21.90;14.82;;;;;;;;;;2082499;28;20296;-61
2021/09/14 01:18:22;;;;;;;19.98;13.98;;;;;;;;;;2079855;28;20251;-60
2021/09/14 01:19:22;;;;;;;21.25;14.45;;;;;;;;;;2090338;28;20190;-59
2021/09/14 01:20:22;;;;;;;22.77;14.70;;;;;;;;;;2082244;28;20192;-60
2021/09/14 01:21:22;;;;;;;17.70;13.05;;;;;;;;;;2081543;28;20246;-55
2021/09/14 01:22:30;;;;;;;17.00;14.07;;;;;;;;;;2082328;28;20620;-59
2021/09/14 01:23:32;;;;;;;18.15;13.57;;;;;;;;;;2078411;28;20218;-60
2021/09/14 01:24:35;;;;;;;17.88;12.88;;;;;;;;;;2073799;28;20216;-61
2021/09/14 01:25:40;;;;;;;19.30;13.82;;;;;;;;;;2077169;28;20563;-58
2021/09/14 01:26:42;;;;;;;16.77;13.68;;;;;;;;;;2073157;28;20176;-59
2021/09/14 01:27:47;;;;;;;18.08;13.57;;;;;;;;;;2078379;28;20184;-58
2021/09/14 01:28:53;;;;;;;19.75;14.13;;;;;;;;;;2078237;28;20220;-56
2021/09/14 01:30:13;;;;;;;18.20;15.05;;;;;;;;;;2081295;28;20180;-57
2021/09/14 01:31:14;;;;;;;19.42;14.25;;;;;;;;;;2077710;28;20164;-60
2021/09/14 01:32:15;;;;;;;21.02;14.80;;;;;;;;;;2073486;28;20181;-62
2021/09/14 01:33:15;;;;;;;19.60;13.80;;;;;;;;;;2075318;28;20720;-63
2021/09/14 01:34:15;;;;;;;19.33;14.40;;;;;;;;;;2072691;28;20178;-63
2021/09/14 01:35:18;;;;;;;17.30;13.38;;;;;;;;;;2072769;28;20290;-61
2021/09/14 01:36:23;;;;;;;17.83;13.40;;;;;;;;;;2073347;28;20634;-63
2021/09/14 01:37:25;;;;;;;17.10;12.93;;;;;;;;;;2073991;28;20666;-61
2021/09/14 01:38:26;;;;;;;18.92;13.45;;;;;;;;;;2073937;28;20177;-61
2021/09/14 01:39:27;;;;;;;19.60;13.65;;;;;;;;;;2080165;28;20172;-62
2021/09/14 01:40:29;;;;;;;18.27;13.13;;;;;;;;;;2080275;28;20287;-62
2021/09/14 01:41:35;;;;;;;17.60;13.48;;;;;;;;;;2066939;28;20170;-59
2021/09/14 01:42:37;;;;;;;20.42;14.18;;;;;;;;;;2072397;28;20226;-62
2021/09/14 01:43:41;;;;;;;18.02;13.25;;;;;;;;;;2081616;28;20176;-63
2021/09/14 01:44:43;;;;;;;18.83;13.88;;;;;;;;;;2084712;28;20184;-62
2021/09/14 01:45:43;;;;;;;18.52;13.88;;;;;;;;;;2073075;28;20207;-63
2021/09/14 01:46:53;;;;;;;17.95;13.95;;;;;;;;;;2083698;28;20218;-62
2021/09/14 01:47:53;;;;;;;18.33;13.93;;;;;;;;;;2079603;28;20588;-61
2021/09/14 01:48:55;;;;;;;16.65;13.10;;;;;;;;;;2071574;28;20200;-61
2021/09/14 01:49:56;;;;;;;19.23;13.35;;;;;;;;;;2079833;28;20671;-62
2021/09/14 01:50:56;;;;;;;16.70;13.55;;;;;;;;;;2080371;28;20176;-63
2021/09/14 01:51:59;;;;;;;16.30;12.45;;;;;;;;;;2075415;28;20172;-63
2021/09/14 01:53:01;;;;;;;16.50;12.30;;;;;;;;;;2069447;28;20201;-62
2021/09/14 01:54:06;;;;;;;15.18;12.30;;;;;;;;;;2080034;28;20207;-57
2021/09/14 01:55:08;;;;;;;16.23;12.02;;;;;;;;;;2078161;28;20171;-61
2021/09/14 01:56:08;;;;;;;15.57;12.10;;;;;;;;;;2083356;28;20200;-61
2021/09/14 01:57:13;;;;;;;18.67;12.43;;;;;;;;;;2069764;28;20172;-62
2021/09/14 01:58:15;;;;;;;16.80;11.98;;;;;;;;;;2078213;28;20172;-61
2021/09/14 01:59:16;;;;;;;15.57;11.38;;;;;;;;;;2070995;28;20204;-63
2021/09/14 02:00:31;;;;;;;18.15;13.77;;;;;;;;;;2069306;28;20272;-62
2021/09/14 02:01:51;;;;;;;22.88;15.05;;;;;;;;;;2069442;28;20211;-60
2021/09/14 02:04:13;;;;;;;23.33;16.65;;;;;;;;;;2084064;28;20253;-62
2021/09/14 02:05:29;;;;;;;22.73;16.02;;;;;;;;;;2072906;28;20227;-62
2021/09/14 02:06:52;;;;;;;21.38;15.27;;;;;;;;;;2075666;28;20192;-57
2021/09/14 02:33:45;;;;;;;23.48;16.88;;;;;;;;;;2078206;28;20183;-63
2021/09/14 02:38:27;;;;;;;24.00;17.63;;;;;;;;;;2072649;28;20176;-59
2021/09/14 02:59:35;;;;;;;26.45;16.45;;;;;;;;;;2067725;28;20161;-61
2021/09/14 03:00:36;;;;;;;22.88;15.80;;;;;;;;;;2085241;28;20217;-61
2021/09/14 03:01:36;;;;;;;21.95;16.80;;;;;;;;;;2084172;28;20172;-63
2021/09/14 03:02:38;;;;;;;23.02;16.38;;;;;;;;;;2073914;28;20173;-59
2021/09/14 03:03:46;;;;;;;28.60;17.42;;;;;;;;;;2075168;28;20172;-63
2021/09/14 03:04:48;;;;;;;26.85;17.40;;;;;;;;;;2072178;28;20261;-62
2021/09/14 03:05:49;;;;;;;20.75;16.35;;;;;;;;;;2086260;28;20603;-60
2021/09/14 03:06:50;;;;;;;32.53;18.40;;;;;;;;;;2072014;28;20173;-64
2021/09/14 03:08:03;;;;;;;28.25;19.30;;;;;;;;;;2069294;28;20244;-61
2021/09/14 03:09:05;;;;;;;27.67;19.17;;;;;;;;;;2064630;28;20185;-61
2021/09/14 03:10:08;;;;;;;33.33;19.45;;;;;;;;;;2077059;28;20168;-64
2021/09/14 03:11:09;;;;;;;26.33;17.90;;;;;;;;;;2072274;28;20670;-62
2021/09/14 03:12:15;;;;;;;27.67;18.08;;;;;;;;;;2073396;28;20216;-60
2021/09/14 03:13:19;;;;;;;28.90;18.05;;;;;;;;;;2070717;28;20177;-60
2021/09/14 03:14:21;;;;;;;25.88;18.50;;;;;;;;;;2070127;28;20169;-60
2021/09/14 03:15:22;;;;;;;26.77;17.63;;;;;;;;;;2065862;28;20197;-60
2021/09/14 03:16:22;;;;;;;23.73;17.25;;;;;;;;;;2076173;28;20200;-60
2021/09/14 03:17:22;;;;;;;32.03;19.55;;;;;;;;;;2072417;28;20166;-62
2021/09/14 03:18:23;;;;;;;27.35;18.27;;;;;;;;;;2063569;28;20173;-60
2021/09/14 03:19:23;;;;;;;23.63;17.00;;;;;;;;;;2080667;28;20730;-57
2021/09/14 03:20:23;;;;;;;25.63;17.95;;;;;;;;;;2080823;28;20188;-56
2021/09/14 03:21:24;;;;;;;27.77;17.23;;;;;;;;;;2081442;28;20176;-58
2021/09/14 03:22:24;;;;;;;29.73;17.98;;;;;;;;;;2072321;28;20180;-57
2021/09/14 03:23:24;;;;;;;30.10;19.48;;;;;;;;;;2072094;28;20699;-58
2021/09/14 03:24:24;;;;;;;22.23;16.33;;;;;;;;;;2072681;28;20176;-56
2021/09/14 03:25:25;;;;;;;22.42;17.40;;;;;;;;;;2080740;28;20172;-60
2021/09/14 03:26:25;;;;;;;25.15;17.98;;;;;;;;;;2080484;28;20156;-61
2021/09/14 03:27:26;;;;;;;23.48;16.00;;;;;;;;;;2071810;28;20576;-57
2021/09/14 03:28:27;;;;;;;28.40;20.15;;;;;;;;;;2071565;28;20220;-56
2021/09/14 03:29:27;;;;;;;22.67;17.55;;;;;;;;;;2068191;28;20160;-58
2021/09/14 03:30:27;;;;;;;24.27;17.80;;;;;;;;;;2066750;28;20248;-64
2021/09/14 03:31:28;;;;;;;25.40;16.77;;;;;;;;;;2080456;28;20161;-59
2021/09/14 03:32:28;;;;;;;21.80;15.75;;;;;;;;;;2082989;28;20234;-56
2021/09/14 03:33:28;;;;;;;21.98;16.33;;;;;;;;;;2080756;28;20180;-59
2021/09/14 03:34:29;;;;;;;23.85;17.50;;;;;;;;;;2080825;28;20764;-58
2021/09/14 03:35:29;;;;;;;26.30;17.67;;;;;;;;;;2079314;28;20806;-57
2021/09/14 03:36:30;;;;;;;27.95;17.73;;;;;;;;;;2078757;28;20168;-59
2021/09/14 03:37:32;;;;;;;28.27;17.58;;;;;;;;;;2072720;28;20550;-60
2021/09/14 03:38:35;;;;;;;28.45;17.13;;;;;;;;;;2072778;28;20907;-58
2021/09/14 03:39:36;;;;;;;22.92;16.38;;;;;;;;;;2071639;28;20185;-57
2021/09/14 03:40:42;;;;;;;22.25;15.80;;;;;;;;;;2077561;28;20274;-59
2021/09/14 03:41:43;;;;;;;21.88;15.32;;;;;;;;;;2079711;28;20553;-57
2021/09/14 03:42:44;;;;;;;23.00;16.33;;;;;;;;;;2073611;28;20177;-59
2021/09/14 03:43:44;;;;;;;22.52;15.35;;;;;;;;;;2063819;28;20201;-59
2021/09/14 03:44:45;;;;;;;21.52;15.60;;;;;;;;;;2074414;28;20173;-56
2021/09/14 03:45:49;;;;;;;21.85;15.25;;;;;;;;;;2072417;28;20173;-58
2021/09/14 03:46:54;;;;;;;22.50;15.90;;;;;;;;;;2072245;28;20272;-62
2021/09/14 03:47:54;;;;;;;24.30;17.10;;;;;;;;;;2071543;28;20535;-57
2021/09/14 03:48:55;;;;;;;29.05;17.60;;;;;;;;;;2072992;28;20280;-61
2021/09/14 03:49:57;;;;;;;32.10;18.05;;;;;;;;;;2076981;28;20943;-58
2021/09/14 03:50:58;;;;;;;30.17;19.73;;;;;;;;;;2082503;28;20275;-60
2021/09/14 03:51:59;;;;;;;30.80;19.63;;;;;;;;;;2079790;28;20184;-60
2021/09/14 03:53:00;;;;;;;31.23;19.45;;;;;;;;;;2072274;28;20663;-59
2021/09/14 03:54:00;;;;;;;31.10;18.48;;;;;;;;;;2072522;28;20223;-59
2021/09/14 03:55:00;;;;;;;29.58;18.58;;;;;;;;;;2071961;28;20196;-60
2021/09/14 03:56:02;;;;;;;28.42;19.15;;;;;;;;;;2072501;28;20180;-58
2021/09/14 03:57:05;;;;;;;31.40;19.15;;;;;;;;;;2080474;28;20177;-62
2021/09/14 03:58:06;;;;;;;32.88;19.95;;;;;;;;;;2079834;28;20176;-62
2021/09/14 03:59:07;;;;;;;25.15;17.27;;;;;;;;;;2072712;28;20402;-58
2021/09/14 04:00:11;;;;;;;27.58;17.23;;;;;;;;;;2080241;28;20172;-60
2021/09/14 04:01:36;;;;;;;25.38;17.02;;;;;;;;;;2079349;28;20680;-61
2021/09/14 04:02:41;;;;;;;27.00;17.25;;;;;;;;;;2075261;28;20182;-60
2021/09/14 04:03:50;;;;;;;27.67;16.80;;;;;;;;;;2073746;28;20260;-61
2021/09/14 04:05:05;;;;;;;24.67;17.10;;;;;;;;;;2074390;28;20200;-57
2021/09/14 04:06:35;;;;;;;24.77;16.30;;;;;;;;;;2077975;28;20215;-59
2021/09/14 04:08:54;;;;;;;23.48;16.42;;;;;;;;;;2068542;28;20638;-59
2021/09/14 04:10:18;;;;;;;24.77;15.98;;;;;;;;;;2075023;28;20286;-62
2021/09/14 04:11:21;;;;;;;26.45;17.25;;;;;;;;;;2072228;28;20177;-62
2021/09/14 04:12:22;;;;;;;24.83;16.25;;;;;;;;;;2079492;28;20575;-60
2021/09/14 04:13:23;;;;;;;23.42;16.77;;;;;;;;;;2079553;28;20211;-62
2021/09/14 04:14:26;;;;;;;24.00;15.65;;;;;;;;;;2072600;28;20164;-60
2021/09/14 04:15:27;;;;;;;24.20;16.73;;;;;;;;;;2074457;28;20187;-60
2021/09/14 04:16:27;;;;;;;29.73;17.25;;;;;;;;;;2080657;28;20191;-59
2021/09/14 04:17:27;;;;;;;26.40;17.17;;;;;;;;;;2083160;28;20176;-57
2021/09/14 04:18:28;;;;;;;23.20;16.25;;;;;;;;;;2079593;28;20806;-60
2021/09/14 04:19:28;;;;;;;25.98;17.88;;;;;;;;;;2071577;28;20180;-63
2021/09/14 04:20:30;;;;;;;32.60;18.27;;;;;;;;;;2080273;28;20697;-60
2021/09/14 04:21:31;;;;;;;29.80;18.42;;;;;;;;;;2072526;28;20207;-59
2021/09/14 04:22:31;;;;;;;28.35;18.83;;;;;;;;;;2072073;28;20259;-58
2021/09/14 04:23:36;;;;;;;27.25;18.85;;;;;;;;;;2065800;28;20666;-61
2021/09/14 04:24:37;;;;;;;26.25;17.33;;;;;;;;;;2072607;28;20164;-57
2021/09/14 04:25:39;;;;;;;30.92;17.35;;;;;;;;;;2080672;28;20191;-58
2021/09/14 04:26:39;;;;;;;29.20;17.13;;;;;;;;;;2080871;28;20642;-60
2021/09/14 04:27:39;;;;;;;25.70;17.95;;;;;;;;;;2080730;28;20180;-62
2021/09/14 04:28:40;;;;;;;26.35;16.77;;;;;;;;;;2073886;28;20282;-60
2021/09/14 04:29:40;;;;;;;28.17;18.17;;;;;;;;;;2072265;28;20181;-60
2021/09/14 04:30:40;;;;;;;29.35;19.23;;;;;;;;;;2071576;28;20669;-62
2021/09/14 04:31:41;;;;;;;27.52;18.63;;;;;;;;;;2080366;28;20172;-62
2021/09/14 04:32:41;;;;;;;27.98;17.15;;;;;;;;;;2072405;28;20260;-63
2021/09/14 04:33:42;;;;;;;30.92;19.33;;;;;;;;;;2071852;28;20223;-62
2021/09/14 04:34:42;;;;;;;27.98;17.67;;;;;;;;;;2073130;28;20177;-61
2021/09/14 04:35:42;;;;;;;30.00;17.90;;;;;;;;;;2071279;28;20177;-59
2021/09/14 04:36:43;;;;;;;34.03;18.02;;;;;;;;;;2072388;28;20613;-60
2021/09/14 04:37:46;;;;;;;29.90;17.85;;;;;;;;;;2072344;28;20165;-62
2021/09/14 04:38:46;;;;;;;32.65;18.50;;;;;;;;;;2063881;28;20241;-60
2021/09/14 04:39:47;;;;;;;29.17;17.60;;;;;;;;;;2064286;28;20182;-58
2021/09/14 04:40:48;;;;;;;24.63;16.33;;;;;;;;;;2071572;28;20192;-62
2021/09/14 04:41:48;;;;;;;32.58;20.33;;;;;;;;;;2071870;28;20173;-58
2021/09/14 04:42:49;;;;;;;28.70;18.20;;;;;;;;;;2072313;28;20173;-59
2021/09/14 04:43:49;;;;;;;32.35;19.50;;;;;;;;;;2072221;28;20188;-62
2021/09/14 04:44:50;;;;;;;31.73;18.92;;;;;;;;;;2080289;28;20172;-63
2021/09/14 04:45:50;;;;;;;26.80;18.27;;;;;;;;;;2079018;28;20263;-60
2021/09/14 04:46:50;;;;;;;27.83;19.17;;;;;;;;;;2075510;28;20185;-62
2021/09/14 04:47:51;;;;;;;31.65;18.83;;;;;;;;;;2072239;28;20312;-59
2021/09/14 04:48:51;;;;;;;33.33;18.55;;;;;;;;;;2071511;28;20224;-61
2021/09/14 04:49:52;;;;;;;26.48;18.50;;;;;;;;;;2081200;28;20717;-63
2021/09/14 04:50:53;;;;;;;28.17;17.35;;;;;;;;;;2085993;28;20202;-61
2021/09/14 04:51:54;;;;;;;28.45;19.13;;;;;;;;;;2075435;28;20649;-61
2021/09/14 04:52:55;;;;;;;27.55;18.23;;;;;;;;;;2079522;28;20718;-63
2021/09/14 04:53:56;;;;;;;28.85;18.30;;;;;;;;;;2072057;28;20196;-63
2021/09/14 04:54:56;;;;;;;26.98;17.42;;;;;;;;;;2065656;28;20556;-62
2021/09/14 04:55:56;;;;;;;28.38;17.98;;;;;;;;;;2065688;28;20182;-61
2021/09/14 04:56:56;;;;;;;27.70;17.33;;;;;;;;;;2069643;28;20169;-62
2021/09/14 04:57:57;;;;;;;29.08;18.27;;;;;;;;;;2073197;28;20177;-63
2021/09/14 04:58:57;;;;;;;31.25;18.02;;;;;;;;;;2072743;28;20288;-64
2021/09/14 04:59:57;;;;;;;28.40;17.90;;;;;;;;;;2072890;28;20181;-63
2021/09/14 05:00:58;;;;;;;27.98;19.08;;;;;;;;;;2068961;28;20724;-59
2021/09/14 05:01:59;;;;;;;33.72;18.92;;;;;;;;;;2073333;28;20180;-63
2021/09/14 05:02:59;;;;;;;27.40;16.92;;;;;;;;;;2071575;28;20204;-64
2021/09/14 05:03:59;;;;;;;29.17;18.10;;;;;;;;;;2073383;28;20188;-65
2021/09/14 05:05:04;;;;;;;28.08;17.50;;;;;;;;;;2071916;28;20884;-63
2021/09/14 05:06:04;;;;;;;31.35;18.50;;;;;;;;;;2078069;28;20192;-67
2021/09/14 05:07:05;;;;;;;26.60;17.92;;;;;;;;;;2070329;28;20606;-60
2021/09/14 05:08:05;;;;;;;28.60;17.73;;;;;;;;;;2068464;28;20192;-63
2021/09/14 05:09:05;;;;;;;26.75;18.17;;;;;;;;;;2073094;28;20218;-60
2021/09/14 05:11:26;;;;;;;28.20;17.48;;;;;;;;;;2051876;28;21096;-55
2021/09/14 05:12:27;;;;;;;28.92;18.70;;;;;;;;;;2056574;28;20213;-54
2021/09/14 05:13:27;;;;;;;28.70;17.63;;;;;;;;;;2061834;28;20351;-56
2021/09/14 05:14:29;;;;;;;30.23;19.25;;;;;;;;;;2064573;28;20177;-51
2021/09/14 05:15:42;;;;;;;28.95;19.98;;;;;;;;;;2067549;28;20268;-52
2021/09/14 05:17:18;;;;;;;35.47;18.77;;;;;;;;;;2039250;29;20677;-51
2021/09/14 05:18:34;;;;;;;29.85;18.52;;;;;;;;;;2032676;29;20171;-52
2021/09/14 05:19:38;;;;;;;27.90;18.15;;;;;;;;;;2045621;28;20194;-50
2021/09/14 05:20:39;;;;;;;30.02;19.52;;;;;;;;;;2072234;28;20165;-55
2021/09/14 05:21:46;;;;;;;32.90;20.67;;;;;;;;;;2062702;28;20185;-58
2021/09/14 05:22:50;;;;;;;31.85;20.10;;;;;;;;;;2058323;28;20194;-51
2021/09/14 05:23:50;;;;;;;37.45;21.65;;;;;;;;;;2061048;28;20170;-56
2021/09/14 05:24:52;;;;;;;33.10;19.88;;;;;;;;;;2065976;28;20268;-57
2021/09/14 05:25:54;;;;;;;32.53;19.95;;;;;;;;;;2064927;28;20634;-53
2021/09/14 05:26:54;;;;;;;30.98;18.17;;;;;;;;;;2065772;28;20186;-52
2021/09/14 05:27:55;;;;;;;27.20;17.38;;;;;;;;;;2057303;28;20269;-50
2021/09/14 05:28:55;;;;;;;28.65;18.40;;;;;;;;;;2059025;28;20577;-53
2021/09/14 05:29:57;;;;;;;29.70;18.70;;;;;;;;;;2067152;28;20215;-50
2021/09/14 05:30:57;;;;;;;30.95;19.83;;;;;;;;;;2059169;28;20185;-52
2021/09/14 05:31:58;;;;;;;34.22;20.45;;;;;;;;;;2067310;28;20527;-52
2021/09/14 05:32:58;;;;;;;30.63;19.52;;;;;;;;;;2061384;28;20261;-53
2021/09/14 05:33:58;;;;;;;29.17;18.50;;;;;;;;;;2059976;28;20171;-53
2021/09/14 05:34:59;;;;;;;31.52;18.50;;;;;;;;;;2065825;28;20186;-51
2021/09/14 05:36:00;;;;;;;35.88;21.20;;;;;;;;;;2060753;28;20182;-51
2021/09/14 05:37:01;;;;;;;34.10;20.85;;;;;;;;;;2057784;28;20585;-51
2021/09/14 05:38:01;;;;;;;34.50;21.95;;;;;;;;;;2057180;28;20216;-52
2021/09/14 05:39:01;;;;;;;34.47;19.98;;;;;;;;;;2066706;28;20177;-51
2021/09/14 05:40:03;;;;;;;31.95;19.65;;;;;;;;;;2061459;28;20674;-52
2021/09/14 05:41:09;;;;;;;32.40;20.83;;;;;;;;;;2055645;28;20202;-50
2021/09/14 05:42:09;;;;;;;33.13;18.52;;;;;;;;;;2057349;28;20171;-53
2021/09/14 05:43:13;;;;;;;31.92;18.02;;;;;;;;;;2049501;28;20239;-52
2021/09/14 05:44:13;;;;;;;36.92;20.95;;;;;;;;;;2065950;28;20205;-54
2021/09/14 05:45:14;;;;;;;33.22;20.63;;;;;;;;;;2064545;28;20173;-54
2021/09/14 05:46:15;;;;;;;31.65;19.98;;;;;;;;;;2065053;28;20220;-51
2021/09/14 05:47:15;;;;;;;34.40;20.73;;;;;;;;;;2076405;28;20177;-51
2021/09/14 05:48:15;;;;;;;34.05;21.85;;;;;;;;;;2056663;28;20178;-53
2021/09/14 05:49:16;;;;;;;34.53;21.98;;;;;;;;;;2064754;28;20267;-52
2021/09/14 05:50:18;;;;;;;37.25;22.20;;;;;;;;;;2065698;28;20197;-52
2021/09/14 05:51:19;;;;;;;35.78;21.60;;;;;;;;;;2047548;28;20191;-54
2021/09/14 05:52:27;;;;;;;36.75;21.08;;;;;;;;;;2056452;28;20194;-52
2021/09/14 05:53:27;;;;;;;33.30;21.92;;;;;;;;;;2070538;28;20216;-51
2021/09/14 05:54:30;;;;;;;34.15;22.95;;;;;;;;;;2064181;28;20609;-50
2021/09/14 05:55:30;;;;;;;40.90;23.58;;;;;;;;;;2066609;28;20173;-53
2021/09/14 05:56:34;;;;;;;35.28;22.35;;;;;;;;;;2076557;28;20204;-54
2021/09/14 05:57:42;;;;;;;35.78;22.80;;;;;;;;;;2059969;28;20198;-52
2021/09/14 05:58:43;;;;;;;36.72;22.75;;;;;;;;;;2058232;28;20174;-54
2021/09/14 05:59:43;;;;;;;41.88;23.77;;;;;;;;;;2059234;28;20178;-56
2021/09/14 06:00:44;;;;;;;31.55;21.10;;;;;;;;;;2058897;28;20231;-55
2021/09/14 06:01:45;;;;;;;26.92;19.60;;;;;;;;;;2058440;28;20166;-53
2021/09/14 06:02:45;;;;;;;35.45;20.98;;;;;;;;;;2070558;28;20220;-51
2021/09/14 06:03:47;;;;;;;34.90;22.52;;;;;;;;;;2066317;28;20677;-52
2021/09/14 06:04:48;;;;;;;31.52;21.77;;;;;;;;;;2066341;28;20185;-55
2021/09/14 06:05:48;;;;;;;34.10;22.15;;;;;;;;;;2073844;28;20694;-50
2021/09/14 06:06:48;;;;;;;31.70;20.42;;;;;;;;;;2058434;28;20182;-52
2021/09/14 06:07:49;;;;;;;33.30;21.55;;;;;;;;;;2050469;28;20194;-50
2021/09/14 06:08:50;;;;;;;30.92;20.60;;;;;;;;;;2049333;28;20198;-53
2021/09/14 06:09:50;;;;;;;34.55;22.30;;;;;;;;;;2050106;28;20191;-51
2021/09/14 06:10:51;;;;;;;32.67;21.05;;;;;;;;;;2049751;28;20575;-53
2021/09/14 06:11:52;;;;;;;37.92;21.77;;;;;;;;;;2058127;28;20840;-50
2021/09/14 06:12:53;;;;;;;31.92;21.38;;;;;;;;;;2056654;28;20277;-51
2021/09/14 06:13:53;;;;;;;34.35;21.27;;;;;;;;;;2056683;28;20951;-55
2021/09/14 06:14:54;;;;;;;28.13;20.23;;;;;;;;;;2057548;28;20364;-52
2021/09/14 06:15:54;;;;;;;34.15;22.23;;;;;;;;;;2065866;28;20252;-53
2021/09/14 06:16:57;;;;;;;31.17;21.85;;;;;;;;;;2073299;28;20334;-53
2021/09/14 06:18:01;;;;;;;33.30;20.27;;;;;;;;;;2072667;28;20184;-51
2021/09/14 06:19:05;;;;;;;30.70;20.38;;;;;;;;;;2065828;28;20235;-52
2021/09/14 06:20:08;;;;;;;30.80;20.40;;;;;;;;;;2059299;28;20658;-52
2021/09/14 06:21:13;;;;;;;30.63;21.52;;;;;;;;;;2060007;28;20197;-51
2021/09/14 06:22:14;;;;;;;31.23;21.25;;;;;;;;;;2066545;28;20174;-52
2021/09/14 06:23:16;;;;;;;30.50;21.50;;;;;;;;;;2066029;28;20185;-52
2021/09/14 06:24:16;;;;;;;34.35;20.90;;;;;;;;;;2065853;28;20208;-54
2021/09/14 06:25:16;;;;;;;28.75;20.33;;;;;;;;;;2074388;28;20168;-50
2021/09/14 06:26:17;;;;;;;30.40;21.15;;;;;;;;;;2074446;28;20184;-51
2021/09/14 06:27:18;;;;;;;32.03;20.30;;;;;;;;;;2066558;28;20176;-52
2021/09/14 06:28:19;;;;;;;29.42;20.42;;;;;;;;;;2065609;28;20190;-52
2021/09/14 06:29:19;;;;;;;27.23;20.10;;;;;;;;;;2060123;28;20193;-51
2021/09/14 06:30:19;;;;;;;27.35;19.65;;;;;;;;;;2060673;28;20177;-51
2021/09/14 06:31:20;;;;;;;28.65;19.48;;;;;;;;;;2065139;28;20188;-54
2021/09/14 06:32:20;;;;;;;25.90;19.05;;;;;;;;;;2062160;28;20198;-52
2021/09/14 06:33:39;;;;;;;29.98;19.75;;;;;;;;;;2062592;28;20154;-50
2021/09/14 06:34:40;;;;;;;28.20;20.27;;;;;;;;;;2065200;28;20527;-51
2021/09/14 06:35:40;;;;;;;30.85;20.83;;;;;;;;;;2066080;28;20166;-53
2021/09/14 06:36:51;;;;;;;27.77;19.48;;;;;;;;;;2066311;28;20158;-53
2021/09/14 06:37:51;;;;;;;24.25;18.00;;;;;;;;;;2074070;28;20283;-51
2021/09/14 06:38:52;;;;;;;26.55;18.98;;;;;;;;;;2065112;28;20227;-50
2021/09/14 06:39:52;;;;;;;31.02;19.38;;;;;;;;;;2049650;28;20187;-51
2021/09/14 06:40:52;;;;;;;23.00;18.90;;;;;;;;;;2057045;28;20190;-51
2021/09/14 06:41:56;;;;;;;25.50;19.60;;;;;;;;;;2073358;28;20208;-51
2021/09/14 06:42:59;;;;;;;25.73;18.98;;;;;;;;;;2073277;28;20401;-54
2021/09/14 06:44:20;;;;;;;22.98;17.50;;;;;;;;;;2057588;28;20171;-52
2021/09/14 06:45:28;;;;;;;29.83;22.13;;;;;;;;;;2054348;28;20179;-52
2021/09/14 06:46:34;;;;;;;25.88;17.52;;;;;;;;;;2048640;28;20183;-51
2021/09/14 06:47:39;;;;;;;24.48;18.00;;;;;;;;;;2054314;28;20712;-53
2021/09/14 06:48:39;;;;;;;24.17;17.40;;;;;;;;;;2063862;28;20198;-50
2021/09/14 06:49:40;;;;;;;26.13;20.95;;;;;;;;;;2064522;28;20174;-51
2021/09/14 06:50:40;;;;;;;22.92;16.90;;;;;;;;;;2072050;28;20188;-52
2021/09/14 06:51:40;;;;;;;28.23;19.48;;;;;;;;;;2071696;28;20169;-50
2021/09/14 06:52:40;;;;;;;26.90;20.88;;;;;;;;;;2064804;28;20253;-50
2021/09/14 06:53:41;;;;;;;23.77;18.67;;;;;;;;;;2064448;28;20169;-51
2021/09/14 06:54:41;;;;;;;21.67;16.52;;;;;;;;;;2064559;28;20682;-51